Time;durP1;ratioP1;P1;durP2;ratioP2;P2;SDS_P1;SDS_P2;PMS_P1;PMS_P2;Temp;Humidity;BMP_temperature;BMP_pressure;BME280_temperature;BME280_humidity;BME280_pressure;Samples;Min_cycle;Max_cycle;Signal;HPM_P1;HPM_P2
2021/05/16 00:03:56;;;;;;;1.65;1.20;;;19.20;37.80;;;;;;8328857;28;20087;-47
2021/05/16 00:07:57;;;;;;;2.50;1.10;;;19.20;37.80;;;;;;8325748;28;20037;-49
2021/05/16 00:11:58;;;;;;;2.00;0.93;;;19.20;37.80;;;;;;8328816;28;20068;-48
2021/05/16 00:15:58;;;;;;;1.60;1.00;;;19.20;37.80;;;;;;8332714;28;20045;-49
2021/05/16 00:19:59;;;;;;;1.30;1.00;;;19.20;37.80;;;;;;8326567;28;20091;-48
2021/05/16 00:23:59;;;;;;;1.70;1.10;;;19.20;37.90;;;;;;8328300;28;20037;-48
2021/05/16 00:28:00;;;;;;;2.33;1.20;;;19.20;37.90;;;;;;8327823;28;20049;-47
2021/05/16 00:32:01;;;;;;;1.67;1.00;;;19.20;37.90;;;;;;8330698;28;20057;-48
2021/05/16 00:36:01;;;;;;;1.30;0.93;;;19.20;37.90;;;;;;8326900;28;20041;-49
2021/05/16 00:40:04;;;;;;;2.10;0.90;;;19.20;37.90;;;;;;8327480;28;20034;-47
2021/05/16 00:44:04;;;;;;;1.98;1.40;;;19.20;37.90;;;;;;8325867;28;20038;-48
2021/05/16 00:48:07;;;;;;;1.03;0.90;;;19.20;38.00;;;;;;8314902;28;20403;-48
2021/05/16 00:52:08;;;;;;;1.40;1.13;;;19.10;37.90;;;;;;8319853;28;20037;-48
2021/05/16 00:56:08;;;;;;;1.23;1.00;;;19.20;38.00;;;;;;8295315;28;20037;-50
2021/05/16 01:00:12;;;;;;;1.10;1.00;;;19.10;38.00;;;;;;8294399;28;20056;-48
2021/05/16 01:04:12;;;;;;;0.93;0.90;;;19.10;37.90;;;;;;8294262;28;20091;-47
2021/05/16 01:08:14;;;;;;;1.73;1.03;;;19.10;37.90;;;;;;8296709;28;20043;-47
2021/05/16 01:12:16;;;;;;;1.05;0.90;;;19.10;38.00;;;;;;8293867;28;20048;-47
2021/05/16 01:16:16;;;;;;;1.75;1.00;;;19.10;38.00;;;;;;8317141;28;20068;-47
2021/05/16 01:20:20;;;;;;;1.43;1.00;;;19.10;38.00;;;;;;8324993;28;20541;-47
2021/05/16 01:24:23;;;;;;;1.23;0.80;;;19.10;38.00;;;;;;8330284;28;20034;-47
2021/05/16 01:28:23;;;;;;;1.15;0.88;;;19.10;38.00;;;;;;8325973;28;20033;-48
2021/05/16 01:32:24;;;;;;;1.03;0.93;;;19.10;38.00;;;;;;8324290;28;20044;-47
2021/05/16 01:36:25;;;;;;;1.83;1.20;;;19.10;38.00;;;;;;8325962;28;20041;-46
2021/05/16 01:40:26;;;;;;;0.60;0.60;;;19.00;38.00;;;;;;8325657;28;20060;-47
2021/05/16 01:44:27;;;;;;;1.75;1.10;;;19.00;38.00;;;;;;8320332;28;20431;-47
2021/05/16 01:48:27;;;;;;;1.23;0.70;;;19.10;38.10;;;;;;8292950;28;20038;-47
2021/05/16 01:52:30;;;;;;;1.13;0.90;;;19.10;38.10;;;;;;8315706;28;20399;-46
2021/05/16 01:56:31;;;;;;;2.05;1.23;;;19.10;38.10;;;;;;8292933;28;20040;-48
2021/05/16 02:00:38;;;;;;;1.50;0.90;;;19.00;38.10;;;;;;8296963;28;20041;-46
2021/05/16 02:04:39;;;;;;;0.90;0.80;;;19.10;38.10;;;;;;8292489;28;20046;-46
2021/05/16 02:08:41;;;;;;;1.20;1.10;;;19.00;38.10;;;;;;8325330;28;20593;-48
2021/05/16 02:12:42;;;;;;;1.63;1.00;;;19.10;38.20;;;;;;8325075;28;20040;-47
2021/05/16 02:16:42;;;;;;;1.20;0.70;;;19.00;38.20;;;;;;8323436;28;20034;-47
2021/05/16 02:20:44;;;;;;;1.20;0.80;;;19.00;38.20;;;;;;8329399;28;20078;-47
2021/05/16 02:24:45;;;;;;;1.27;0.93;;;19.00;38.20;;;;;;8324884;28;20049;-48
2021/05/16 02:28:45;;;;;;;1.13;0.93;;;19.00;38.30;;;;;;8323814;28;20042;-46
2021/05/16 02:32:47;;;;;;;1.53;0.80;;;19.00;38.30;;;;;;8325199;28;20029;-47
2021/05/16 02:36:47;;;;;;;1.67;1.08;;;19.00;38.30;;;;;;8329062;28;20036;-46
2021/05/16 02:40:48;;;;;;;0.97;0.80;;;19.00;38.30;;;;;;8322955;28;20041;-47
2021/05/16 02:44:48;;;;;;;1.10;0.90;;;19.00;38.30;;;;;;8324457;28;20045;-47
2021/05/16 02:48:49;;;;;;;0.90;0.80;;;19.00;38.30;;;;;;8324841;28;20034;-47
2021/05/16 02:52:49;;;;;;;2.10;0.80;;;19.00;38.30;;;;;;8327717;28;20034;-47
2021/05/16 02:56:50;;;;;;;1.03;0.70;;;19.00;38.30;;;;;;8324542;28;20080;-48
2021/05/16 03:00:51;;;;;;;1.20;0.98;;;19.00;38.30;;;;;;8330276;28;20486;-48
2021/05/16 03:04:52;;;;;;;1.75;1.15;;;18.90;38.30;;;;;;8329005;28;20390;-47
2021/05/16 03:08:53;;;;;;;1.07;0.83;;;19.00;38.30;;;;;;8330645;28;20060;-49
2021/05/16 03:12:53;;;;;;;1.47;0.80;;;18.90;38.40;;;;;;8334887;28;20362;-47
2021/05/16 03:16:54;;;;;;;0.70;0.70;;;18.90;38.40;;;;;;8328683;28;20033;-47
2021/05/16 03:20:55;;;;;;;1.37;1.00;;;18.90;38.40;;;;;;8330161;28;20053;-47
2021/05/16 03:24:55;;;;;;;0.80;0.80;;;18.90;38.40;;;;;;8330061;28;20037;-48
2021/05/16 03:28:56;;;;;;;1.00;0.90;;;18.90;38.30;;;;;;8332709;28;20124;-47
2021/05/16 03:32:56;;;;;;;0.73;0.67;;;18.90;38.30;;;;;;8317578;28;20033;-48
2021/05/16 03:36:57;;;;;;;1.03;0.90;;;18.90;38.40;;;;;;8297182;28;20034;-47
2021/05/16 03:40:58;;;;;;;0.70;0.60;;;18.90;38.40;;;;;;8295202;28;20045;-48
2021/05/16 03:44:59;;;;;;;0.97;0.87;;;18.90;38.40;;;;;;8310144;28;20505;-47
2021/05/16 03:49:01;;;;;;;1.27;0.88;;;18.90;38.40;;;;;;8312806;28;20034;-46
2021/05/16 03:53:01;;;;;;;0.93;0.70;;;18.90;38.30;;;;;;8319711;28;20058;-47
2021/05/16 03:57:02;;;;;;;2.00;0.90;;;18.90;38.40;;;;;;8296309;28;20042;-47
2021/05/16 04:01:03;;;;;;;0.93;0.70;;;18.90;38.30;;;;;;8296139;28;20036;-47
2021/05/16 04:05:04;;;;;;;0.90;0.80;;;18.90;38.30;;;;;;8298476;28;20050;-46
2021/05/16 04:09:05;;;;;;;1.38;0.90;;;19.00;38.40;;;;;;8295593;28;20080;-47
2021/05/16 04:13:06;;;;;;;1.30;0.63;;;18.90;38.30;;;;;;8317672;28;20029;-48
2021/05/16 04:17:06;;;;;;;1.33;1.00;;;18.90;38.40;;;;;;8326727;28;20052;-47
2021/05/16 04:21:07;;;;;;;1.10;0.93;;;18.90;38.40;;;;;;8319119;28;20670;-47
2021/05/16 04:25:08;;;;;;;1.40;1.00;;;18.90;38.40;;;;;;8317266;28;20084;-48
2021/05/16 04:29:09;;;;;;;0.70;0.70;;;18.90;38.40;;;;;;8326190;28;20099;-47
2021/05/16 04:33:10;;;;;;;1.10;0.77;;;18.90;38.40;;;;;;8314120;28;20434;-48
2021/05/16 04:37:10;;;;;;;1.03;0.83;;;18.90;38.40;;;;;;8295185;28;20037;-48
2021/05/16 04:41:11;;;;;;;1.47;0.90;;;18.90;38.40;;;;;;8297637;28;20378;-47
2021/05/16 04:45:12;;;;;;;1.75;0.80;;;18.90;38.40;;;;;;8294797;28;20172;-47
2021/05/16 04:49:14;;;;;;;2.28;0.80;;;18.90;38.50;;;;;;8294573;28;20492;-47
2021/05/16 04:53:15;;;;;;;0.93;0.73;;;18.90;38.50;;;;;;8292707;28;20041;-46
2021/05/16 04:57:15;;;;;;;1.43;0.87;;;18.90;38.50;;;;;;8298681;28;20443;-48
2021/05/16 05:01:16;;;;;;;1.97;1.00;;;18.90;38.40;;;;;;8294215;28;20376;-47
2021/05/16 05:05:16;;;;;;;1.50;0.80;;;18.90;38.40;;;;;;8292617;28;20073;-48
2021/05/16 05:09:17;;;;;;;1.33;0.77;;;18.90;38.50;;;;;;8294348;28;20059;-48
2021/05/16 05:13:18;;;;;;;1.10;0.60;;;18.90;39.00;;;;;;8296137;28;20037;-51
2021/05/16 05:17:19;;;;;;;1.00;0.88;;;18.90;38.50;;;;;;8318928;28;20448;-47
2021/05/16 05:21:19;;;;;;;1.03;0.83;;;18.90;38.50;;;;;;8293203;28;20037;-47
2021/05/16 05:25:20;;;;;;;0.87;0.80;;;18.90;38.50;;;;;;8317471;28;20089;-47
2021/05/16 05:29:21;;;;;;;0.93;0.80;;;19.00;38.50;;;;;;8317193;28;20049;-47
2021/05/16 05:33:22;;;;;;;0.70;0.70;;;19.00;38.50;;;;;;8313326;28;20029;-48
2021/05/16 05:37:23;;;;;;;1.70;0.77;;;19.00;38.50;;;;;;8326043;28;20041;-48
2021/05/16 05:41:23;;;;;;;1.43;0.70;;;19.00;38.50;;;;;;8316629;28;20030;-48
2021/05/16 05:45:24;;;;;;;0.60;0.60;;;19.00;38.40;;;;;;8292965;28;20164;-47
2021/05/16 05:49:25;;;;;;;0.57;0.53;;;19.00;38.40;;;;;;8297314;28;20038;-47
2021/05/16 05:53:25;;;;;;;0.93;0.60;;;19.00;38.50;;;;;;8316005;28;20044;-47
2021/05/16 05:57:26;;;;;;;0.60;0.60;;;19.00;38.50;;;;;;8292848;28;20038;-47
2021/05/16 06:01:26;;;;;;;0.77;0.70;;;19.00;38.50;;;;;;8292635;28;20029;-47
2021/05/16 06:05:28;;;;;;;0.50;0.50;;;19.00;38.50;;;;;;8299205;28;20041;-49
2021/05/16 06:09:28;;;;;;;0.90;0.70;;;19.00;38.50;;;;;;8313046;28;20104;-48
2021/05/16 06:13:29;;;;;;;1.27;0.60;;;18.90;38.50;;;;;;8290968;28;20038;-47
2021/05/16 06:17:29;;;;;;;1.83;0.60;;;19.00;38.50;;;;;;8301500;28;20423;-48
2021/05/16 06:21:30;;;;;;;0.80;0.70;;;18.90;38.50;;;;;;8308217;28;20061;-48
2021/05/16 06:25:30;;;;;;;0.67;0.67;;;19.00;38.60;;;;;;8320040;28;20102;-47
2021/05/16 06:29:31;;;;;;;0.87;0.60;;;19.00;38.60;;;;;;8325116;28;20548;-47
2021/05/16 06:33:31;;;;;;;0.70;0.70;;;19.00;38.50;;;;;;8327461;28;20037;-47
2021/05/16 06:37:32;;;;;;;0.93;0.60;;;19.00;38.50;;;;;;8330076;28;20048;-47
2021/05/16 06:41:33;;;;;;;0.50;0.50;;;19.00;38.40;;;;;;8335838;28;20041;-47
2021/05/16 06:45:34;;;;;;;0.90;0.82;;;19.00;38.40;;;;;;8331141;28;20041;-47
2021/05/16 06:49:36;;;;;;;1.93;0.70;;;19.00;38.40;;;;;;8329310;28;20055;-46
2021/05/16 06:53:37;;;;;;;0.90;0.60;;;19.00;38.40;;;;;;8331171;28;20398;-50
2021/05/16 06:57:41;;;;;;;0.75;0.75;;;19.00;38.40;;;;;;8331207;28;20037;-49
2021/05/16 07:01:42;;;;;;;1.33;0.73;;;19.00;38.40;;;;;;8331382;28;20034;-47
2021/05/16 07:05:43;;;;;;;1.10;0.70;;;19.10;38.50;;;;;;8298152;28;20510;-48
2021/05/16 07:09:43;;;;;;;1.07;0.70;;;19.00;38.40;;;;;;8298087;28;20495;-47
2021/05/16 07:13:45;;;;;;;1.40;0.87;;;19.10;38.50;;;;;;8296162;28;20045;-47
2021/05/16 07:17:45;;;;;;;1.05;0.60;;;19.00;38.40;;;;;;8302159;28;20034;-47
2021/05/16 07:21:46;;;;;;;1.47;1.27;;;19.10;38.50;;;;;;8297426;28;20483;-47
2021/05/16 07:25:47;;;;;;;0.88;0.60;;;19.10;38.50;;;;;;8298628;28;20498;-47
2021/05/16 07:29:49;;;;;;;1.00;0.73;;;19.10;38.50;;;;;;8318807;28;20125;-48
2021/05/16 07:33:49;;;;;;;2.17;0.80;;;19.10;38.50;;;;;;8296873;28;20037;-50
2021/05/16 07:37:50;;;;;;;1.40;0.87;;;19.10;38.50;;;;;;8302777;28;20040;-48
2021/05/16 07:41:51;;;;;;;0.77;0.70;;;19.10;38.50;;;;;;8329625;28;20036;-48
2021/05/16 07:45:52;;;;;;;0.67;0.57;;;19.10;38.50;;;;;;8308856;28;20046;-47
2021/05/16 07:49:53;;;;;;;0.85;0.77;;;19.20;38.50;;;;;;8319585;28;20034;-47
2021/05/16 07:53:56;;;;;;;0.70;0.60;;;19.20;38.50;;;;;;8312704;28;20037;-48
2021/05/16 07:57:57;;;;;;;1.48;1.00;;;19.20;38.50;;;;;;8329047;28;20490;-48
2021/05/16 08:01:57;;;;;;;0.77;0.70;;;19.20;38.40;;;;;;8327610;28;20027;-46
2021/05/16 08:05:58;;;;;;;0.60;0.60;;;19.20;38.40;;;;;;8316182;28;20049;-48
2021/05/16 08:09:58;;;;;;;0.87;0.83;;;19.20;38.40;;;;;;8320890;28;20470;-47
2021/05/16 08:13:59;;;;;;;0.90;0.70;;;19.30;38.50;;;;;;8298407;28;20128;-47
2021/05/16 08:18:00;;;;;;;2.10;1.00;;;19.20;38.40;;;;;;8302480;28;20030;-48
2021/05/16 08:22:00;;;;;;;2.53;0.90;;;19.30;38.40;;;;;;8307676;28;20076;-48
2021/05/16 08:26:01;;;;;;;0.90;0.70;;;19.30;38.40;;;;;;8297237;28;20064;-48
2021/05/16 08:30:04;;;;;;;1.02;0.60;;;19.30;38.40;;;;;;8313002;28;20030;-47
2021/05/16 08:34:06;;;;;;;1.70;0.65;;;19.30;38.40;;;;;;8306387;28;20042;-46
2021/05/16 08:38:07;;;;;;;0.63;0.63;;;19.30;38.50;;;;;;8299334;28;20025;-48
2021/05/16 08:42:07;;;;;;;1.23;0.70;;;19.30;38.40;;;;;;8327829;28;20052;-47
2021/05/16 08:46:08;;;;;;;0.50;0.50;;;19.40;38.50;;;;;;8331795;28;20045;-46
2021/05/16 08:50:13;;;;;;;0.70;0.70;;;19.40;38.40;;;;;;8301128;28;20102;-49
2021/05/16 08:54:22;;;;;;;0.82;0.50;;;19.40;38.40;;;;;;8327344;28;20042;-48
2021/05/16 08:58:23;;;;;;;1.02;0.70;;;19.40;38.40;;;;;;8302352;28;20041;-47
2021/05/16 09:02:23;;;;;;;1.60;0.63;;;19.50;38.40;;;;;;8300417;28;20037;-48
2021/05/16 09:06:33;;;;;;;0.60;0.57;;;19.50;38.40;;;;;;8315225;28;20052;-47
2021/05/16 09:10:34;;;;;;;0.60;0.60;;;19.50;38.30;;;;;;8318038;28;20046;-47
2021/05/16 09:14:42;;;;;;;1.30;0.70;;;19.60;38.30;;;;;;8326913;28;20494;-47
2021/05/16 09:18:51;;;;;;;2.70;0.90;;;19.60;38.30;;;;;;8326650;28;20037;-48
2021/05/16 09:22:52;;;;;;;1.15;0.80;;;19.60;38.20;;;;;;8304507;28;20057;-47
2021/05/16 09:26:58;;;;;;;0.52;0.50;;;19.60;38.20;;;;;;8326734;28;20046;-48
2021/05/16 09:30:58;;;;;;;1.17;0.90;;;19.60;38.20;;;;;;8305534;28;20042;-47
2021/05/16 09:34:59;;;;;;;1.60;0.90;;;19.60;38.10;;;;;;8296526;28;20041;-48
2021/05/16 09:39:19;;;;;;;0.60;0.60;;;19.60;38.10;;;;;;8313343;28;20026;-47
2021/05/16 09:43:32;;;;;;;0.60;0.55;;;19.60;38.10;;;;;;8297449;28;20285;-46
2021/05/16 09:47:33;;;;;;;0.90;0.70;;;19.70;38.10;;;;;;8300555;28;20045;-47
2021/05/16 09:51:35;;;;;;;1.53;0.67;;;19.70;38.10;;;;;;8325847;28;20120;-46
2021/05/16 09:55:37;;;;;;;1.65;0.70;;;19.70;38.00;;;;;;8324043;28;20390;-48
2021/05/16 09:59:38;;;;;;;0.73;0.57;;;19.70;37.90;;;;;;8325289;28;20482;-47
2021/05/16 10:03:39;;;;;;;1.50;0.80;;;19.70;38.00;;;;;;8329958;28;20088;-47
2021/05/16 10:07:41;;;;;;;1.08;0.68;;;19.70;37.90;;;;;;8323618;28;20292;-46
2021/05/16 10:11:42;;;;;;;1.40;0.70;;;19.70;37.90;;;;;;8325311;28;20592;-50
2021/05/16 10:15:44;;;;;;;0.70;0.60;;;19.70;37.90;;;;;;8325124;28;20032;-47
2021/05/16 10:19:46;;;;;;;2.28;0.73;;;19.70;37.90;;;;;;8327743;28;20080;-47
2021/05/16 10:23:46;;;;;;;1.00;0.55;;;19.80;37.80;;;;;;8324904;28;20038;-47
2021/05/16 10:27:47;;;;;;;1.30;1.03;;;19.80;37.80;;;;;;8324753;28;20049;-48
2021/05/16 10:31:53;;;;;;;1.10;0.53;;;19.80;37.80;;;;;;8323435;28;20071;-46
2021/05/16 10:35:54;;;;;;;0.82;0.70;;;19.70;37.80;;;;;;8313377;28;20498;-48
2021/05/16 10:39:55;;;;;;;1.17;0.77;;;19.70;37.80;;;;;;8296409;28;20038;-47
2021/05/16 10:44:30;;;;;;;0.88;0.75;;;19.70;37.80;;;;;;8314899;28;20034;-47
2021/05/16 10:48:34;;;;;;;0.50;0.50;;;19.70;37.90;;;;;;8308837;28;20045;-46
2021/05/16 10:52:35;;;;;;;1.80;0.90;;;19.70;37.90;;;;;;8322811;28;20461;-49
2021/05/16 10:56:37;;;;;;;1.50;0.90;;;19.70;37.90;;;;;;8325435;28;20044;-49
2021/05/16 11:00:42;;;;;;;1.92;0.73;;;19.70;37.90;;;;;;8327756;28;20446;-47
2021/05/16 11:04:52;;;;;;;0.93;0.60;;;19.70;37.90;;;;;;8322430;28;20030;-47
2021/05/16 11:08:53;;;;;;;1.23;0.70;;;19.70;38.00;;;;;;8324320;28;20096;-48
2021/05/16 11:13:13;;;;;;;0.80;0.70;;;19.60;38.00;;;;;;8324165;28;20479;-51
2021/05/16 11:17:16;;;;;;;1.05;0.60;;;19.70;38.10;;;;;;8326794;28;20037;-49
2021/05/16 11:21:17;;;;;;;1.75;0.70;;;19.60;38.00;;;;;;8328848;28;20045;-48
2021/05/16 11:25:24;;;;;;;0.50;0.50;;;19.70;38.10;;;;;;8330009;28;20398;-49
2021/05/16 11:29:25;;;;;;;1.20;1.08;;;19.70;38.10;;;;;;8328337;28;20037;-48
2021/05/16 11:33:32;;;;;;;0.63;0.63;;;19.60;38.10;;;;;;8330028;28;20035;-49
2021/05/16 11:37:33;;;;;;;1.08;0.55;;;19.70;38.20;;;;;;8332610;28;20044;-48
2021/05/16 11:41:37;;;;;;;1.30;0.75;;;19.70;38.30;;;;;;8329881;28;20056;-48
2021/05/16 11:45:41;;;;;;;0.77;0.77;;;19.60;38.20;;;;;;8329337;28;20046;-49
2021/05/16 11:49:49;;;;;;;0.60;0.60;;;19.60;38.20;;;;;;8327680;28;20034;-49
2021/05/16 11:53:56;;;;;;;1.02;0.52;;;19.60;38.30;;;;;;8330261;28;20471;-49
2021/05/16 11:57:57;;;;;;;1.13;0.55;;;19.60;38.30;;;;;;8300980;28;20092;-49
2021/05/16 12:02:03;;;;;;;1.00;0.70;;;19.60;38.30;;;;;;8319336;28;20072;-48
2021/05/16 12:06:07;;;;;;;0.80;0.80;;;19.60;38.40;;;;;;8329005;28;20076;-49
2021/05/16 12:10:18;;;;;;;0.85;0.82;;;19.60;38.40;;;;;;8328932;28;20124;-48
2021/05/16 12:14:19;;;;;;;0.70;0.60;;;19.60;38.50;;;;;;8331252;28;20116;-48
2021/05/16 12:18:20;;;;;;;;;;;19.50;38.40;;;;;;8329074;28;20061;-48
2021/05/16 12:22:21;;;;;;;0.60;0.60;;;19.60;38.50;;;;;;8328287;28;19963;-49
2021/05/16 12:26:22;;;;;;;1.10;1.00;;;19.60;38.50;;;;;;8326493;28;20049;-47
2021/05/16 12:30:23;;;;;;;1.10;0.80;;;19.60;38.50;;;;;;8328107;28;20029;-48
2021/05/16 12:34:25;;;;;;;1.00;0.75;;;19.60;38.60;;;;;;8332375;28;20498;-48
2021/05/16 12:38:26;;;;;;;1.95;1.00;;;19.60;38.60;;;;;;8326096;28;20394;-50
2021/05/16 12:42:28;;;;;;;1.27;0.80;;;19.50;38.50;;;;;;8327963;28;20033;-48
2021/05/16 12:46:47;;;;;;;1.33;1.10;;;19.60;38.70;;;;;;8325883;28;20049;-46
2021/05/16 12:50:50;;;;;;;1.08;0.88;;;19.60;38.70;;;;;;8332133;28;20030;-48
2021/05/16 12:54:51;;;;;;;1.05;0.70;;;19.60;38.70;;;;;;8327773;28;20498;-49
2021/05/16 12:59:01;;;;;;;1.52;1.40;;;19.60;38.70;;;;;;8325902;28;20034;-49
2021/05/16 13:03:08;;;;;;;1.23;1.10;;;19.60;38.70;;;;;;8327093;28;20401;-48
2021/05/16 13:07:10;;;;;;;1.83;1.17;;;19.60;38.70;;;;;;8327218;28;20128;-49
2021/05/16 13:11:11;;;;;;;1.02;0.90;;;19.60;38.70;;;;;;8329433;28;20025;-49
2021/05/16 13:15:12;;;;;;;1.83;0.80;;;19.60;38.70;;;;;;8326558;28;20045;-50
2021/05/16 13:19:12;;;;;;;1.00;0.90;;;19.60;38.70;;;;;;8326549;28;20041;-47
2021/05/16 13:23:28;;;;;;;0.90;0.90;;;19.60;38.70;;;;;;8324863;28;20034;-49
2021/05/16 13:27:28;;;;;;;1.42;0.82;;;19.60;38.70;;;;;;8327355;28;20037;-48
2021/05/16 13:31:29;;;;;;;2.93;1.37;;;19.60;38.70;;;;;;8327902;28;20088;-48
2021/05/16 13:35:30;;;;;;;1.13;1.00;;;19.60;38.70;;;;;;8326560;28;20045;-49
2021/05/16 13:39:30;;;;;;;1.03;0.90;;;19.60;38.70;;;;;;8325832;28;20026;-48
2021/05/16 13:43:31;;;;;;;1.27;0.90;;;19.60;38.80;;;;;;8323279;28;20034;-49
2021/05/16 13:47:32;;;;;;;1.58;0.90;;;19.60;38.70;;;;;;8306542;28;20041;-48
2021/05/16 13:51:33;;;;;;;0.97;0.70;;;19.60;38.80;;;;;;8308425;28;20061;-50
2021/05/16 13:55:33;;;;;;;1.00;0.90;;;19.60;38.70;;;;;;8315747;28;20426;-50
2021/05/16 13:59:34;;;;;;;1.07;0.93;;;19.60;38.80;;;;;;8292915;28;20080;-49
2021/05/16 14:03:35;;;;;;;1.10;1.00;;;19.60;38.80;;;;;;8297386;28;20038;-50
2021/05/16 14:07:36;;;;;;;0.75;0.75;;;19.60;38.80;;;;;;8292313;28;20104;-48
2021/05/16 14:11:37;;;;;;;1.53;1.20;;;19.60;38.80;;;;;;8315717;28;20077;-50
2021/05/16 14:15:38;;;;;;;0.80;0.77;;;19.60;38.80;;;;;;8310340;28;20120;-52
2021/05/16 14:19:41;;;;;;;1.33;1.00;;;19.60;38.80;;;;;;8297176;28;20058;-48
2021/05/16 14:23:42;;;;;;;1.30;1.00;;;19.60;38.80;;;;;;8307271;28;20399;-51
2021/05/16 14:27:42;;;;;;;2.07;1.00;;;19.60;38.80;;;;;;8306413;28;20137;-48
2021/05/16 14:31:43;;;;;;;0.90;0.90;;;19.60;38.80;;;;;;8292662;28;20426;-48
2021/05/16 14:35:44;;;;;;;1.00;0.90;;;19.60;38.80;;;;;;8325136;28;20498;-48
2021/05/16 14:39:45;;;;;;;1.30;1.17;;;19.60;38.80;;;;;;8329254;28;20030;-49
2021/05/16 14:43:45;;;;;;;0.90;0.90;;;19.60;38.80;;;;;;8323108;28;20045;-49
2021/05/16 14:47:46;;;;;;;1.00;0.80;;;19.60;38.80;;;;;;8324604;28;20414;-49
2021/05/16 14:51:46;;;;;;;1.10;1.00;;;19.60;38.80;;;;;;8324804;28;20133;-49
2021/05/16 14:55:48;;;;;;;0.97;0.97;;;19.60;38.80;;;;;;8331634;28;20548;-52
2021/05/16 14:59:49;;;;;;;1.02;0.70;;;19.60;38.80;;;;;;8333371;28;20080;-48
2021/05/16 15:03:51;;;;;;;1.35;0.90;;;19.60;39.30;;;;;;8331099;28;20490;-50
2021/05/16 15:07:51;;;;;;;0.80;0.55;;;19.60;38.80;;;;;;8329141;28;20382;-48
2021/05/16 15:11:51;;;;;;;1.40;1.00;;;19.60;38.80;;;;;;8330430;28;20040;-48
2021/05/16 15:15:52;;;;;;;0.70;0.70;;;19.60;38.80;;;;;;8334911;28;20112;-49
2021/05/16 15:19:53;;;;;;;1.43;0.77;;;19.60;38.80;;;;;;8304172;28;20038;-49
2021/05/16 15:23:54;;;;;;;2.30;1.17;;;19.60;38.80;;;;;;8330496;28;20128;-48
2021/05/16 15:27:54;;;;;;;1.33;0.80;;;19.60;38.80;;;;;;8310018;28;20502;-48
2021/05/16 15:31:55;;;;;;;0.87;0.73;;;19.60;38.90;;;;;;8300060;28;20042;-52
2021/05/16 15:35:57;;;;;;;0.87;0.80;;;19.60;38.90;;;;;;8297109;28;20080;-50
2021/05/16 15:39:59;;;;;;;0.77;0.77;;;19.60;38.90;;;;;;8297071;28;20030;-52
2021/05/16 15:43:59;;;;;;;0.73;0.70;;;19.60;38.90;;;;;;8295654;28;20065;-52
2021/05/16 15:48:00;;;;;;;0.97;0.73;;;19.70;38.90;;;;;;8309762;28;20046;-48
2021/05/16 15:52:01;;;;;;;1.00;0.80;;;19.70;38.90;;;;;;8312971;28;20037;-48
2021/05/16 15:56:01;;;;;;;0.97;0.87;;;19.60;38.80;;;;;;8319520;28;20041;-48
2021/05/16 16:00:03;;;;;;;1.13;0.80;;;19.70;38.90;;;;;;8309426;28;20034;-48
2021/05/16 16:04:05;;;;;;;0.85;0.80;;;19.70;38.90;;;;;;8328619;28;20026;-49
2021/05/16 16:08:06;;;;;;;0.80;0.73;;;19.70;38.90;;;;;;8331435;28;20029;-48
2021/05/16 16:12:07;;;;;;;0.80;0.80;;;19.60;38.90;;;;;;8315342;28;20124;-49
2021/05/16 16:16:08;;;;;;;0.80;0.80;;;19.60;38.90;;;;;;8317750;28;20029;-51
2021/05/16 16:20:10;;;;;;;0.97;0.70;;;19.60;38.90;;;;;;8326987;28;20037;-52
2021/05/16 16:24:11;;;;;;;1.05;0.88;;;19.60;38.90;;;;;;8332730;28;20037;-49
2021/05/16 16:28:12;;;;;;;1.25;0.75;;;19.70;38.90;;;;;;8328233;28;20053;-48
2021/05/16 16:32:12;;;;;;;0.80;0.60;;;19.70;39.00;;;;;;8326680;28;20061;-48
2021/05/16 16:36:13;;;;;;;0.87;0.80;;;19.70;38.90;;;;;;8313580;28;20045;-49
2021/05/16 16:40:13;;;;;;;0.80;0.60;;;19.60;38.90;;;;;;8317932;28;20040;-48
2021/05/16 16:44:14;;;;;;;1.00;0.90;;;19.60;39.00;;;;;;8324383;28;20108;-49
2021/05/16 16:48:15;;;;;;;0.93;0.50;;;19.70;39.00;;;;;;8294955;28;20415;-48
2021/05/16 16:52:15;;;;;;;0.60;0.50;;;19.70;39.00;;;;;;8317750;28;20501;-50
2021/05/16 16:56:16;;;;;;;1.00;0.80;;;19.70;39.10;;;;;;8325534;28;20057;-49
2021/05/16 17:00:17;;;;;;;1.25;0.95;;;19.60;39.00;;;;;;8331809;28;20048;-48
2021/05/16 17:04:18;;;;;;;0.63;0.63;;;19.70;39.10;;;;;;8327409;28;20037;-49
2021/05/16 17:08:19;;;;;;;0.60;0.60;;;19.60;39.00;;;;;;8318062;28;20045;-48
2021/05/16 17:12:19;;;;;;;1.42;0.80;;;19.60;39.10;;;;;;8294339;28;20038;-49
2021/05/16 17:16:20;;;;;;;1.30;0.90;;;19.60;39.10;;;;;;8293886;28;20037;-53
2021/05/16 17:20:20;;;;;;;0.83;0.60;;;19.60;39.10;;;;;;8271453;28;20065;-49
2021/05/16 17:24:21;;;;;;;1.23;0.93;;;19.60;39.10;;;;;;8317956;28;20041;-49
2021/05/16 17:28:24;;;;;;;0.70;0.60;;;19.60;39.20;;;;;;8326386;28;20058;-49
2021/05/16 17:32:25;;;;;;;0.98;0.82;;;19.60;39.10;;;;;;8312562;28;20068;-50
2021/05/16 17:36:27;;;;;;;0.77;0.73;;;19.60;39.10;;;;;;8330313;28;20030;-52
2021/05/16 17:40:27;;;;;;;0.88;0.70;;;19.60;39.10;;;;;;8324389;28;20042;-49
2021/05/16 17:44:31;;;;;;;0.93;0.70;;;19.60;39.20;;;;;;8318170;28;20420;-49
2021/05/16 17:48:39;;;;;;;0.52;0.52;;;19.60;39.20;;;;;;8293301;28;20084;-48
2021/05/16 17:52:40;;;;;;;0.95;0.70;;;19.60;39.10;;;;;;8293491;28;20077;-49
2021/05/16 17:56:40;;;;;;;0.67;0.60;;;19.60;39.10;;;;;;8296136;28;20038;-47
2021/05/16 18:00:42;;;;;;;0.53;0.53;;;19.60;39.20;;;;;;8311157;28;20120;-47
2021/05/16 18:04:43;;;;;;;1.85;0.60;;;19.60;39.20;;;;;;8323658;28;20040;-47
2021/05/16 18:08:43;;;;;;;1.03;0.73;;;19.60;39.30;;;;;;8325192;28;20383;-49
2021/05/16 18:12:49;;;;;;;1.13;0.97;;;19.60;39.20;;;;;;8329676;28;20509;-49
2021/05/16 18:16:50;;;;;;;1.13;1.02;;;19.60;39.30;;;;;;8323541;28;20116;-49
2021/05/16 18:20:51;;;;;;;1.73;1.00;;;19.60;39.20;;;;;;8324956;28;20034;-50
2021/05/16 18:24:51;;;;;;;1.08;0.80;;;19.60;39.20;;;;;;8325193;28;20046;-52
2021/05/16 18:28:52;;;;;;;1.00;0.80;;;19.60;39.30;;;;;;8332071;28;20041;-50
2021/05/16 18:32:53;;;;;;;0.80;0.73;;;19.60;39.30;;;;;;8336028;28;20034;-50
2021/05/16 18:36:53;;;;;;;1.27;0.83;;;19.50;39.20;;;;;;8335709;28;20029;-50
2021/05/16 18:41:32;;;;;;;1.50;0.90;;;19.60;39.30;;;;;;8329302;28;20132;-49
2021/05/16 18:45:33;;;;;;;1.27;1.08;;;19.50;39.30;;;;;;8312915;28;20300;-48
2021/05/16 18:49:35;;;;;;;1.30;0.90;;;19.50;39.30;;;;;;8338096;28;20121;-49
2021/05/16 18:53:37;;;;;;;1.40;0.85;;;19.60;39.40;;;;;;8335435;28;20033;-48
2021/05/16 18:57:38;;;;;;;1.48;1.08;;;19.50;39.40;;;;;;8335549;28;20103;-48
2021/05/16 19:01:39;;;;;;;;;;;19.50;39.40;;;;;;8334234;28;20093;-50
2021/05/16 19:05:39;;;;;;;1.47;1.00;;;19.50;39.40;;;;;;8335314;28;20289;-51
2021/05/16 19:09:40;;;;;;;1.17;0.80;;;19.50;39.40;;;;;;8339272;28;20104;-51
2021/05/16 19:13:41;;;;;;;1.70;0.90;;;19.50;39.40;;;;;;8333642;28;20037;-49
2021/05/16 19:17:42;;;;;;;1.92;0.70;;;19.50;39.40;;;;;;8335618;28;20505;-50
2021/05/16 19:21:43;;;;;;;0.93;0.70;;;19.50;39.40;;;;;;8335365;28;20040;-52
2021/05/16 19:25:48;;;;;;;1.80;0.83;;;19.50;39.40;;;;;;8338163;28;20481;-53
2021/05/16 19:29:48;;;;;;;0.80;0.80;;;19.50;39.40;;;;;;8335943;28;20120;-49
2021/05/16 19:33:49;;;;;;;0.73;0.73;;;19.50;39.40;;;;;;8336350;28;20485;-51
2021/05/16 19:37:49;;;;;;;0.97;0.70;;;19.50;39.40;;;;;;8334100;28;20146;-48
2021/05/16 19:41:53;;;;;;;1.10;0.70;;;19.50;39.40;;;;;;8334902;28;20038;-49
2021/05/16 19:45:54;;;;;;;0.88;0.70;;;19.50;39.50;;;;;;8332635;28;20057;-49
2021/05/16 19:49:54;;;;;;;0.60;0.60;;;19.40;39.40;;;;;;8328351;28;20060;-52
2021/05/16 19:53:55;;;;;;;0.80;0.63;;;19.40;39.40;;;;;;8329586;28;20034;-50
2021/05/16 19:57:55;;;;;;;0.73;0.67;;;19.40;39.40;;;;;;8329105;28;20037;-52
2021/05/16 20:01:56;;;;;;;1.07;0.60;;;19.40;39.50;;;;;;8331943;28;20479;-49
2021/05/16 20:05:56;;;;;;;1.57;0.70;;;19.40;39.40;;;;;;8328980;28;20191;-48
2021/05/16 20:09:57;;;;;;;1.67;0.83;;;19.40;39.50;;;;;;8329128;28;20037;-51
2021/05/16 20:13:57;;;;;;;2.27;1.03;;;19.40;39.50;;;;;;8327450;28;20488;-49
2021/05/16 20:17:58;;;;;;;1.47;1.00;;;19.40;39.50;;;;;;8333100;28;20038;-49
2021/05/16 20:21:59;;;;;;;1.83;0.90;;;19.40;39.50;;;;;;8328358;28;20038;-49
2021/05/16 20:26:00;;;;;;;1.27;0.90;;;19.40;39.50;;;;;;8326614;28;20068;-50
2021/05/16 20:30:02;;;;;;;1.42;0.85;;;19.40;39.50;;;;;;8328471;28;20037;-49
2021/05/16 20:34:03;;;;;;;0.93;0.70;;;19.40;39.50;;;;;;8327931;28;20473;-50
2021/05/16 20:38:05;;;;;;;1.15;0.80;;;19.40;39.50;;;;;;8330778;28;20493;-49
2021/05/16 20:42:07;;;;;;;1.00;0.90;;;19.40;39.50;;;;;;8314100;28;20140;-49
2021/05/16 20:46:08;;;;;;;2.08;1.00;;;19.40;39.50;;;;;;8294998;28;20084;-49
2021/05/16 20:50:11;;;;;;;0.97;0.80;;;19.40;39.50;;;;;;8298821;28;20029;-49
2021/05/16 20:54:12;;;;;;;0.88;0.70;;;19.40;39.50;;;;;;8330808;28;20444;-49
2021/05/16 20:58:14;;;;;;;1.02;0.77;;;19.40;39.60;;;;;;8327453;28;20048;-49
2021/05/16 21:02:15;;;;;;;1.67;0.80;;;19.40;39.60;;;;;;8325412;28;20037;-50